Time;durP1;ratioP1;P1;durP2;ratioP2;P2;SDS_P1;SDS_P2;PMS_P1;PMS_P2;Temp;Humidity;BMP_temperature;BMP_pressure;BME280_temperature;BME280_humidity;BME280_pressure;Samples;Min_cycle;Max_cycle;Signal;HPM_P1;HPM_P2
2022/07/15 00:02:07;;;;;;;4.13;1.50;;;25.00;53.20;;;;;;5006880;28;20144;-58
2022/07/15 00:04:33;;;;;;;3.53;1.42;;;24.90;53.20;;;;;;5006641;28;20434;-58
2022/07/15 00:06:59;;;;;;;3.78;1.50;;;24.90;53.20;;;;;;5003879;28;20049;-58
2022/07/15 00:10:13;;;;;;;4.47;1.50;;;24.90;53.10;;;;;;5005180;28;20040;-58
2022/07/15 00:12:10;;;;;;;3.67;1.75;;;24.90;53.10;;;;;;4999595;28;20030;-58
2022/07/15 00:14:36;;;;;;;2.63;1.50;;;24.90;53.10;;;;;;5002721;28;20084;-58
2022/07/15 00:17:02;;;;;;;3.47;1.60;;;24.80;53.20;;;;;;5006260;28;20041;-58
2022/07/15 00:19:28;;;;;;;2.90;1.33;;;24.80;53.10;;;;;;5006892;28;20057;-57
2022/07/15 00:21:54;;;;;;;4.00;1.60;;;24.80;53.10;;;;;;5006930;28;20030;-58
2022/07/15 00:24:19;;;;;;;4.28;1.50;;;24.80;53.10;;;;;;5005541;28;20057;-58
2022/07/15 00:26:45;;;;;;;3.28;1.42;;;24.80;53.20;;;;;;5004478;28;20030;-58
2022/07/15 00:29:10;;;;;;;3.00;1.38;;;24.80;53.20;;;;;;5008325;28;20034;-58
2022/07/15 00:31:37;;;;;;;4.20;1.60;;;24.80;53.20;;;;;;5005088;28;20687;-58
2022/07/15 00:34:03;;;;;;;2.75;1.45;;;24.80;53.30;;;;;;5006774;28;20026;-58
2022/07/15 00:36:29;;;;;;;2.30;1.30;;;24.80;53.20;;;;;;5003756;28;20034;-58
2022/07/15 00:38:55;;;;;;;3.55;1.63;;;24.80;53.30;;;;;;5004108;28;20376;-58
2022/07/15 00:41:20;;;;;;;3.28;1.42;;;24.80;54.30;;;;;;5006960;28;20033;-58
2022/07/15 00:43:46;;;;;;;3.60;1.70;;;24.80;53.30;;;;;;5004717;28;20394;-58
2022/07/15 00:46:20;;;;;;;3.20;1.42;;;24.80;53.40;;;;;;5004216;28;20580;-58
2022/07/15 00:48:46;;;;;;;3.90;1.73;;;24.80;53.30;;;;;;5004756;28;20092;-58
2022/07/15 00:51:12;;;;;;;4.47;1.80;;;24.80;53.40;;;;;;5005914;28;20033;-58
2022/07/15 00:53:38;;;;;;;2.92;1.40;;;24.80;53.40;;;;;;5003797;28;20069;-58
2022/07/15 00:56:07;;;;;;;2.88;1.63;;;24.70;53.30;;;;;;5004201;28;20041;-58
2022/07/15 00:58:34;;;;;;;3.63;1.30;;;24.70;53.30;;;;;;5005942;28;20030;-57
2022/07/15 01:01:00;;;;;;;2.65;1.30;;;24.70;53.40;;;;;;4999956;28;20082;-58
2022/07/15 01:03:26;;;;;;;2.60;1.48;;;24.70;53.40;;;;;;5003547;28;20117;-58
2022/07/15 01:05:51;;;;;;;3.40;1.45;;;24.70;53.40;;;;;;4988235;28;20117;-58
2022/07/15 01:08:17;;;;;;;2.95;1.60;;;24.70;53.40;;;;;;5004504;28;20022;-58
2022/07/15 01:10:43;;;;;;;2.28;1.35;;;24.70;53.40;;;;;;5005496;28;20533;-58
2022/07/15 01:13:09;;;;;;;3.97;1.60;;;24.70;53.50;;;;;;5027584;28;20037;-58
2022/07/15 01:15:35;;;;;;;2.88;1.40;;;24.60;53.50;;;;;;5010232;28;20537;-58
2022/07/15 01:18:01;;;;;;;4.15;1.50;;;24.60;53.40;;;;;;5012168;28;20046;-58
2022/07/15 01:20:27;;;;;;;3.47;1.45;;;24.70;53.50;;;;;;5010595;28;20130;-58
2022/07/15 01:22:53;;;;;;;2.85;1.35;;;24.60;53.50;;;;;;5009759;28;20173;-58
2022/07/15 01:25:18;;;;;;;2.72;1.40;;;24.60;53.50;;;;;;5013257;28;20033;-58
2022/07/15 01:27:44;;;;;;;3.17;1.42;;;24.60;53.50;;;;;;5010959;28;20036;-57
2022/07/15 01:30:11;;;;;;;3.08;1.40;;;24.60;53.50;;;;;;5012388;28;20113;-57
2022/07/15 01:32:37;;;;;;;3.90;1.48;;;24.60;53.50;;;;;;5012051;28;20045;-58
2022/07/15 01:35:03;;;;;;;3.13;1.50;;;24.60;53.50;;;;;;5011466;28;20072;-58
2022/07/15 01:37:28;;;;;;;4.22;1.65;;;24.60;53.60;;;;;;5012049;28;20072;-58
2022/07/15 01:39:54;;;;;;;4.40;1.40;;;24.60;53.60;;;;;;5009968;28;20061;-58
2022/07/15 01:42:20;;;;;;;3.42;1.50;;;24.60;53.60;;;;;;5011545;28;20038;-58
2022/07/15 01:44:46;;;;;;;3.25;1.30;;;24.60;53.70;;;;;;5015234;28;20081;-58
2022/07/15 01:47:11;;;;;;;2.53;1.40;;;24.60;53.70;;;;;;5011743;28;20037;-58
2022/07/15 01:49:37;;;;;;;2.47;1.20;;;24.60;53.70;;;;;;5012275;28;20057;-58
2022/07/15 01:52:03;;;;;;;2.92;1.30;;;24.60;53.80;;;;;;5010593;28;20029;-58
2022/07/15 01:54:29;;;;;;;4.07;1.50;;;24.60;53.80;;;;;;5010753;28;20021;-58
2022/07/15 01:56:55;;;;;;;2.72;1.40;;;24.50;53.80;;;;;;5025520;28;20434;-58
2022/07/15 01:59:24;;;;;;;3.15;1.40;;;24.50;53.80;;;;;;5010139;28;20034;-58
2022/07/15 02:01:51;;;;;;;2.92;1.40;;;24.50;53.80;;;;;;5010703;28;20403;-58
2022/07/15 02:04:17;;;;;;;4.22;1.60;;;24.50;53.80;;;;;;5010948;28;20030;-58
2022/07/15 02:06:43;;;;;;;3.72;1.40;;;24.50;53.80;;;;;;5009805;28;20038;-58
2022/07/15 02:09:08;;;;;;;2.55;1.10;;;24.50;53.90;;;;;;5012338;28;20498;-58
2022/07/15 02:11:34;;;;;;;2.53;1.30;;;24.50;53.80;;;;;;5010747;28;20030;-58
2022/07/15 02:14:01;;;;;;;2.10;1.13;;;24.50;53.90;;;;;;5009487;28;20030;-58
2022/07/15 02:16:28;;;;;;;3.78;1.50;;;24.50;53.90;;;;;;5011478;28;20030;-58
2022/07/15 02:18:53;;;;;;;2.17;1.40;;;24.50;53.90;;;;;;5011197;28;20176;-58
2022/07/15 02:21:19;;;;;;;2.85;1.40;;;24.50;54.00;;;;;;5009829;28;20117;-58
2022/07/15 02:23:45;;;;;;;1.83;1.20;;;24.50;53.90;;;;;;5008509;28;20490;-58
2022/07/15 02:26:10;;;;;;;1.70;1.33;;;24.50;54.00;;;;;;5009971;28;20561;-58
2022/07/15 02:28:36;;;;;;;3.00;1.30;;;24.50;54.00;;;;;;5009348;28;20368;-58
2022/07/15 02:31:01;;;;;;;2.45;1.35;;;24.40;54.00;;;;;;5007894;28;20073;-58
2022/07/15 02:33:28;;;;;;;3.05;1.60;;;24.40;53.90;;;;;;5008336;28;20041;-58
2022/07/15 02:35:53;;;;;;;2.10;1.30;;;24.40;53.90;;;;;;5006533;28;20026;-58
2022/07/15 02:38:19;;;;;;;2.45;1.48;;;24.40;54.00;;;;;;5007672;28;20115;-58
2022/07/15 02:40:45;;;;;;;3.05;1.40;;;24.40;54.00;;;;;;5007520;28;20030;-58
2022/07/15 02:43:11;;;;;;;2.03;1.30;;;24.40;54.00;;;;;;5007150;28;20030;-58
2022/07/15 02:45:36;;;;;;;3.17;1.40;;;24.40;54.00;;;;;;5009010;28;20517;-58
2022/07/15 02:48:03;;;;;;;4.07;1.40;;;24.40;54.00;;;;;;5008736;28;20045;-58
2022/07/15 02:50:29;;;;;;;2.35;1.20;;;24.40;54.00;;;;;;5005960;28;20030;-58
2022/07/15 02:52:54;;;;;;;2.20;1.30;;;24.40;54.10;;;;;;5004575;28;20410;-58
2022/07/15 02:55:20;;;;;;;3.10;1.50;;;24.40;54.10;;;;;;5008552;28;20490;-58
2022/07/15 02:57:46;;;;;;;2.97;1.40;;;24.40;54.10;;;;;;5008311;28;20029;-58
2022/07/15 03:00:14;;;;;;;3.05;1.20;;;24.40;54.10;;;;;;5005976;28;20018;-58
2022/07/15 03:02:40;;;;;;;6.47;1.70;;;24.40;54.10;;;;;;5006823;28;20653;-58
2022/07/15 03:05:06;;;;;;;4.05;1.30;;;24.30;54.00;;;;;;5005201;28;20037;-58
2022/07/15 03:07:32;;;;;;;2.67;1.25;;;24.30;54.10;;;;;;5006491;28;20038;-58
2022/07/15 03:09:57;;;;;;;2.47;1.27;;;24.30;54.10;;;;;;5007457;28;20044;-58
2022/07/15 03:12:23;;;;;;;2.00;1.30;;;24.40;54.10;;;;;;5005944;28;20216;-58
2022/07/15 03:14:49;;;;;;;1.80;1.20;;;24.30;54.10;;;;;;5007338;28;20022;-58
2022/07/15 03:17:14;;;;;;;2.85;1.35;;;24.30;54.10;;;;;;5008239;28;20495;-58
2022/07/15 03:19:40;;;;;;;2.55;1.48;;;24.30;54.10;;;;;;5005843;28;20042;-58
2022/07/15 03:22:06;;;;;;;2.58;1.30;;;24.30;54.20;;;;;;5006422;28;20029;-58
2022/07/15 03:24:32;;;;;;;2.10;1.30;;;24.30;54.20;;;;;;5006497;28;20026;-58
2022/07/15 03:26:57;;;;;;;2.40;1.40;;;24.30;54.20;;;;;;5007532;28;20048;-58
2022/07/15 03:29:24;;;;;;;2.85;1.30;;;24.30;54.20;;;;;;5007200;28;20030;-58
2022/07/15 03:31:50;;;;;;;2.65;1.20;;;24.30;54.20;;;;;;5007225;28;20049;-58
2022/07/15 03:34:15;;;;;;;2.42;1.40;;;24.30;54.20;;;;;;5007111;28;20030;-58
2022/07/15 03:36:41;;;;;;;2.70;1.40;;;24.30;54.20;;;;;;5005885;28;20053;-58
2022/07/15 03:39:06;;;;;;;1.83;1.20;;;24.20;54.20;;;;;;5008268;28;20030;-57
2022/07/15 03:41:32;;;;;;;2.10;1.10;;;24.30;54.20;;;;;;5003727;28;20071;-58
2022/07/15 03:43:59;;;;;;;2.95;1.30;;;24.20;54.20;;;;;;5007584;28;20030;-58
2022/07/15 03:46:25;;;;;;;3.08;1.40;;;24.20;54.20;;;;;;5007933;28;20048;-58
2022/07/15 03:48:51;;;;;;;2.30;1.30;;;24.20;54.20;;;;;;5006583;28;20026;-58
2022/07/15 03:51:17;;;;;;;2.45;1.27;;;24.20;54.30;;;;;;5006768;28;20037;-58
2022/07/15 03:53:43;;;;;;;2.22;1.25;;;24.20;54.20;;;;;;5006679;28;20030;-58
2022/07/15 03:56:08;;;;;;;1.98;1.25;;;24.20;54.30;;;;;;5006858;28;20449;-58
2022/07/15 03:58:34;;;;;;;2.55;1.48;;;24.20;54.30;;;;;;5005728;28;20041;-58
2022/07/15 04:01:00;;;;;;;4.00;1.35;;;24.20;54.40;;;;;;5003312;28;20498;-58
2022/07/15 04:03:25;;;;;;;2.92;1.25;;;24.20;54.30;;;;;;5005759;28;20633;-58
2022/07/15 04:05:51;;;;;;;2.70;1.30;;;24.20;54.30;;;;;;5006178;28;20036;-58
2022/07/15 04:08:17;;;;;;;2.45;1.30;;;24.20;54.30;;;;;;5006580;28;20025;-58
2022/07/15 04:10:42;;;;;;;2.35;1.40;;;24.20;54.30;;;;;;5004059;28;20026;-58
2022/07/15 04:13:08;;;;;;;1.88;1.20;;;24.20;55.40;;;;;;5006240;28;20561;-58
2022/07/15 04:15:34;;;;;;;2.72;1.40;;;24.10;54.30;;;;;;5006196;28;20092;-58
2022/07/15 04:18:01;;;;;;;1.98;1.15;;;24.10;54.30;;;;;;5007745;28;20410;-58
2022/07/15 04:20:26;;;;;;;2.50;1.23;;;24.20;54.30;;;;;;5005073;28;20053;-58
2022/07/15 04:22:52;;;;;;;2.60;1.30;;;24.10;54.30;;;;;;5006159;28;20084;-58
2022/07/15 04:25:19;;;;;;;3.08;1.20;;;24.20;54.30;;;;;;5003945;28;20033;-58
2022/07/15 04:27:45;;;;;;;2.80;1.10;;;24.10;54.30;;;;;;5005945;28;20572;-58
2022/07/15 04:30:11;;;;;;;2.55;1.30;;;24.10;54.30;;;;;;5005398;28;20076;-58
2022/07/15 04:32:37;;;;;;;2.70;1.20;;;24.10;54.30;;;;;;5004715;28;20105;-58
2022/07/15 04:35:03;;;;;;;2.30;1.30;;;24.10;54.40;;;;;;5007631;28;20121;-58
2022/07/15 04:37:29;;;;;;;2.10;1.25;;;24.10;54.40;;;;;;5004696;28;20229;-58
2022/07/15 04:39:55;;;;;;;2.63;1.33;;;24.10;54.40;;;;;;5005020;28;21812;-58
2022/07/15 04:42:21;;;;;;;3.15;1.30;;;24.10;54.50;;;;;;5004198;28;20061;-58
2022/07/15 04:44:47;;;;;;;2.35;1.13;;;24.10;54.50;;;;;;5006494;28;20022;-58
2022/07/15 04:47:13;;;;;;;1.48;1.10;;;24.00;54.40;;;;;;5002510;28;20046;-58
2022/07/15 04:52:24;;;;;;;2.70;1.20;;;24.00;54.40;;;;;;5005097;28;20589;-58
2022/07/15 04:54:50;;;;;;;1.30;1.17;;;24.10;54.50;;;;;;5000597;28;20863;-58
2022/07/15 04:57:16;;;;;;;2.33;1.17;;;24.10;54.50;;;;;;5003213;28;20458;-58
2022/07/15 04:59:41;;;;;;;2.55;1.17;;;24.00;54.50;;;;;;5004085;28;20041;-58
2022/07/15 05:02:07;;;;;;;2.60;1.30;;;24.00;54.50;;;;;;5005462;28;20470;-58
2022/07/15 05:04:32;;;;;;;1.75;1.27;;;24.00;54.50;;;;;;5002598;28;20022;-58
2022/07/15 05:06:58;;;;;;;1.38;1.02;;;24.00;54.50;;;;;;5004206;28;20116;-58
2022/07/15 05:09:27;;;;;;;6.80;1.58;;;24.00;54.60;;;;;;4999315;28;20064;-58
2022/07/15 05:11:53;;;;;;;4.45;1.58;;;24.00;54.40;;;;;;5004629;28;20109;-58
2022/07/15 05:14:18;;;;;;;7.53;1.50;;;24.00;54.20;;;;;;5003671;28;20105;-58
2022/07/15 05:16:44;;;;;;;4.05;1.40;;;23.90;54.10;;;;;;5001674;28;20044;-58
2022/07/15 05:19:09;;;;;;;5.55;1.50;;;23.90;54.30;;;;;;5003967;28;20057;-58
2022/07/15 05:21:35;;;;;;;3.58;1.40;;;23.90;54.30;;;;;;5004593;28;20157;-58
2022/07/15 05:24:01;;;;;;;7.47;1.85;;;23.90;54.40;;;;;;5005475;28;20107;-58
2022/07/15 05:26:26;;;;;;;5.30;1.50;;;23.90;54.30;;;;;;5005276;28;20046;-58
2022/07/15 05:28:52;;;;;;;4.57;1.40;;;23.90;54.40;;;;;;5004768;28;20105;-58
2022/07/15 05:31:18;;;;;;;5.43;1.52;;;23.90;54.50;;;;;;5005001;28;20028;-58
2022/07/15 05:33:43;;;;;;;4.13;1.35;;;23.90;54.60;;;;;;5004908;28;20120;-58
2022/07/15 05:36:12;;;;;;;4.82;1.40;;;23.90;54.50;;;;;;5006863;28;20038;-58
2022/07/15 05:38:38;;;;;;;3.85;1.20;;;23.90;54.60;;;;;;5005907;28;20451;-58
2022/07/15 05:41:04;;;;;;;6.35;1.50;;;23.80;54.60;;;;;;5006323;28;20430;-58
2022/07/15 05:43:30;;;;;;;6.15;1.40;;;23.80;54.60;;;;;;5005116;28;20026;-58
2022/07/15 05:45:56;;;;;;;4.47;1.30;;;23.80;54.60;;;;;;5005091;28;20124;-58
2022/07/15 05:48:22;;;;;;;4.78;1.45;;;23.90;54.70;;;;;;5005747;28;20144;-58
2022/07/15 05:50:47;;;;;;;4.00;1.42;;;23.80;54.70;;;;;;5006006;28;20111;-58
2022/07/15 05:53:13;;;;;;;4.45;1.23;;;23.80;54.70;;;;;;5003312;28;20080;-58
2022/07/15 05:55:39;;;;;;;4.88;1.52;;;23.80;54.70;;;;;;5006773;28;20033;-58
2022/07/15 05:58:08;;;;;;;3.22;1.40;;;23.80;54.70;;;;;;5006148;28;20041;-58
2022/07/15 06:00:33;;;;;;;8.23;1.65;;;23.80;54.70;;;;;;5008442;28;20418;-58
2022/07/15 06:02:59;;;;;;;3.60;1.30;;;23.80;54.70;;;;;;5007436;28;20030;-58
2022/07/15 06:05:25;;;;;;;3.70;1.45;;;23.80;54.70;;;;;;5007046;28;20065;-58
2022/07/15 06:07:50;;;;;;;3.35;1.23;;;23.80;54.70;;;;;;5007625;28;20052;-58
2022/07/15 06:10:16;;;;;;;4.15;1.45;;;23.80;54.80;;;;;;5007735;28;20030;-58
2022/07/15 06:12:41;;;;;;;4.65;1.35;;;23.80;54.80;;;;;;5009104;28;20029;-58
2022/07/15 06:15:08;;;;;;;4.15;1.30;;;23.80;54.80;;;;;;5006532;28;20029;-58
2022/07/15 06:17:34;;;;;;;3.17;1.30;;;23.70;54.70;;;;;;5010603;28;20026;-58
2022/07/15 06:20:00;;;;;;;3.35;1.27;;;23.80;54.80;;;;;;5007670;28;20057;-58
2022/07/15 06:22:26;;;;;;;3.42;1.45;;;23.70;54.80;;;;;;5009743;28;20034;-58
2022/07/15 06:24:52;;;;;;;3.15;1.20;;;23.80;54.90;;;;;;5007595;28;20026;-58
2022/07/15 06:27:18;;;;;;;3.83;1.30;;;23.70;54.80;;;;;;5008877;28;20407;-58
2022/07/15 06:29:43;;;;;;;4.38;1.45;;;23.70;54.80;;;;;;5007902;28;20036;-58
2022/07/15 06:32:11;;;;;;;3.80;1.23;;;23.70;55.90;;;;;;5008946;28;20048;-58
2022/07/15 06:34:37;;;;;;;4.80;1.35;;;23.70;54.80;;;;;;5008332;28;20076;-58
2022/07/15 06:37:03;;;;;;;3.42;1.13;;;23.80;54.80;;;;;;5005549;28;20037;-58
2022/07/15 06:39:28;;;;;;;3.80;1.27;;;23.70;54.90;;;;;;5009620;28;20442;-58
2022/07/15 06:41:54;;;;;;;4.60;1.40;;;23.70;54.90;;;;;;5009041;28;20410;-58
2022/07/15 06:44:20;;;;;;;4.15;1.23;;;23.70;54.90;;;;;;5008271;28;20467;-58
2022/07/15 06:46:45;;;;;;;4.43;1.27;;;23.70;54.80;;;;;;5007543;28;20522;-58
2022/07/15 06:49:11;;;;;;;3.97;1.33;;;23.70;54.80;;;;;;5007519;28;20052;-58
2022/07/15 06:51:37;;;;;;;3.95;1.30;;;23.70;54.90;;;;;;5009553;28;20034;-58
2022/07/15 06:54:02;;;;;;;4.88;1.23;;;23.70;54.90;;;;;;5007039;28;20418;-58
2022/07/15 06:56:29;;;;;;;3.28;1.33;;;23.70;54.90;;;;;;5006935;28;20040;-58
2022/07/15 06:58:55;;;;;;;3.75;1.30;;;23.70;54.90;;;;;;5006313;28;20048;-58
2022/07/15 07:01:20;;;;;;;3.08;1.27;;;23.70;54.90;;;;;;5016013;28;20037;-58
2022/07/15 07:03:46;;;;;;;4.38;1.30;;;23.70;54.90;;;;;;5009031;28;20029;-58
2022/07/15 07:06:11;;;;;;;3.25;1.20;;;23.70;54.90;;;;;;5005900;28;20045;-58
2022/07/15 07:08:37;;;;;;;3.50;1.25;;;23.70;54.90;;;;;;5007146;28;20125;-58
2022/07/15 07:11:03;;;;;;;4.43;1.27;;;23.70;54.90;;;;;;5006350;28;20113;-58
2022/07/15 07:13:28;;;;;;;4.18;1.27;;;23.70;54.90;;;;;;5006187;28;20458;-58
2022/07/15 07:15:54;;;;;;;4.72;1.52;;;23.70;54.90;;;;;;5006425;28;20113;-58
2022/07/15 07:18:20;;;;;;;3.08;1.20;;;23.70;54.90;;;;;;5008677;28;20038;-58
2022/07/15 07:20:45;;;;;;;2.80;1.23;;;23.70;54.90;;;;;;5005832;28;20084;-58
2022/07/15 07:23:11;;;;;;;3.72;1.25;;;23.70;54.90;;;;;;5005532;28;20026;-58
2022/07/15 07:25:37;;;;;;;4.03;1.27;;;23.70;55.00;;;;;;5007312;28;20069;-58
2022/07/15 07:28:03;;;;;;;3.88;1.38;;;23.70;54.90;;;;;;5006636;28;20041;-58
2022/07/15 07:30:32;;;;;;;3.05;1.30;;;23.60;54.90;;;;;;5007917;28;20041;-58
2022/07/15 07:32:57;;;;;;;5.00;1.20;;;23.60;54.70;;;;;;5007635;28;20026;-58
2022/07/15 07:35:23;;;;;;;3.75;1.25;;;23.60;54.90;;;;;;5006086;28;20069;-58
2022/07/15 07:37:49;;;;;;;3.17;1.30;;;23.60;54.80;;;;;;5007772;28;20084;-58
2022/07/15 07:40:16;;;;;;;3.17;1.42;;;23.60;54.80;;;;;;5006565;28;20091;-58
2022/07/15 07:42:42;;;;;;;4.20;1.30;;;23.60;54.80;;;;;;5006533;28;20034;-58
2022/07/15 07:45:10;;;;;;;2.85;1.20;;;23.60;54.90;;;;;;5005955;28;20446;-58
2022/07/15 07:47:43;;;;;;;3.17;1.25;;;23.60;54.80;;;;;;5006056;28;20038;-58
2022/07/15 07:50:09;;;;;;;4.82;1.48;;;23.60;55.80;;;;;;5007113;28;20108;-58
2022/07/15 07:52:35;;;;;;;3.72;1.30;;;23.60;55.80;;;;;;5007684;28;20088;-58
2022/07/15 07:55:00;;;;;;;3.55;1.30;;;23.60;54.90;;;;;;5006205;28;20502;-58
2022/07/15 07:57:26;;;;;;;2.65;1.23;;;23.60;54.80;;;;;;5005695;28;20026;-58
2022/07/15 07:59:52;;;;;;;4.38;1.20;;;23.60;54.90;;;;;;5005638;28;20025;-58
2022/07/15 08:02:17;;;;;;;5.20;1.50;;;23.60;54.80;;;;;;5007463;28;20589;-58
2022/07/15 08:04:43;;;;;;;2.88;1.10;;;23.60;54.90;;;;;;5008529;28;20057;-58
2022/07/15 08:07:11;;;;;;;4.45;1.10;;;23.60;55.00;;;;;;5007053;28;20498;-58
2022/07/15 08:09:36;;;;;;;3.72;1.40;;;23.60;54.90;;;;;;5005160;28;20117;-58
2022/07/15 08:12:02;;;;;;;3.97;1.38;;;23.60;55.00;;;;;;5006485;28;20120;-58
2022/07/15 08:14:29;;;;;;;3.53;1.27;;;23.60;55.00;;;;;;5005176;28;20037;-58
2022/07/15 08:16:54;;;;;;;4.90;1.63;;;23.60;55.00;;;;;;5004391;28;20034;-58
2022/07/15 08:19:20;;;;;;;3.90;1.25;;;23.60;55.00;;;;;;5004738;28;20072;-58
2022/07/15 08:21:46;;;;;;;4.30;1.30;;;23.60;55.00;;;;;;5003882;28;20499;-58
2022/07/15 08:24:12;;;;;;;4.82;1.27;;;23.60;55.00;;;;;;5005840;28;20103;-58
2022/07/15 08:26:38;;;;;;;3.10;1.40;;;23.60;55.00;;;;;;5005556;28;20053;-58
2022/07/15 08:29:04;;;;;;;3.78;1.17;;;23.60;55.00;;;;;;5006279;28;20041;-58
2022/07/15 08:31:33;;;;;;;3.58;1.20;;;23.60;55.10;;;;;;5003544;28;20042;-58
2022/07/15 08:33:59;;;;;;;2.28;1.25;;;23.60;55.10;;;;;;5005251;28;20022;-58
2022/07/15 08:36:25;;;;;;;3.42;1.20;;;23.60;55.10;;;;;;5004197;28;20044;-58
2022/07/15 08:38:50;;;;;;;4.53;1.30;;;23.60;55.10;;;;;;5005781;28;20018;-57
2022/07/15 08:41:16;;;;;;;4.15;1.30;;;23.60;55.10;;;;;;5006398;28;20038;-58
2022/07/15 08:43:41;;;;;;;3.28;1.40;;;23.70;55.20;;;;;;5006657;28;20050;-58
2022/07/15 08:46:07;;;;;;;3.13;1.38;;;23.60;55.20;;;;;;5004513;28;20041;-57
2022/07/15 08:48:37;;;;;;;3.22;1.30;;;23.60;55.10;;;;;;5006624;28;20490;-58
2022/07/15 08:51:05;;;;;;;3.58;1.30;;;23.60;55.10;;;;;;5004101;28;20163;-58
2022/07/15 08:53:31;;;;;;;2.28;1.20;;;23.60;55.10;;;;;;5005173;28;20038;-58
2022/07/15 08:55:57;;;;;;;3.28;1.20;;;23.60;55.10;;;;;;5003219;28;20036;-58
2022/07/15 08:58:23;;;;;;;3.10;1.30;;;23.70;55.20;;;;;;5003273;28;20037;-58
2022/07/15 09:00:49;;;;;;;4.22;1.52;;;23.60;55.10;;;;;;5004723;28;21087;-58
2022/07/15 09:03:15;;;;;;;4.30;1.40;;;23.70;55.20;;;;;;5005292;28;20116;-58
2022/07/15 09:05:40;;;;;;;3.05;1.40;;;23.70;55.20;;;;;;5001606;28;20022;-58
2022/07/15 09:08:08;;;;;;;2.97;1.27;;;23.70;55.20;;;;;;5003513;28;20037;-58
2022/07/15 09:10:51;;;;;;;2.83;1.27;;;23.70;55.20;;;;;;5004958;28;20054;-58
2022/07/15 09:13:38;;;;;;;3.42;1.48;;;23.70;55.20;;;;;;5004347;28;20114;-58
2022/07/15 09:16:08;;;;;;;3.08;1.15;;;23.70;55.30;;;;;;5006432;28;20040;-58
2022/07/15 09:18:44;;;;;;;2.67;1.08;;;23.70;55.20;;;;;;5003375;28;20172;-58
2022/07/15 09:21:26;;;;;;;3.67;1.08;;;23.70;55.20;;;;;;5005489;28;20314;-57
2022/07/15 09:23:53;;;;;;;3.97;1.30;;;23.70;55.30;;;;;;5005248;28;20106;-58
2022/07/15 09:26:29;;;;;;;3.97;1.10;;;23.70;55.20;;;;;;5004435;28;20045;-58
2022/07/15 09:28:56;;;;;;;3.45;1.30;;;23.70;55.30;;;;;;5006064;28;20019;-58
2022/07/15 09:34:19;;;;;;;3.88;1.20;;;23.70;55.30;;;;;;5010048;28;20125;-58
2022/07/15 09:36:50;;;;;;;3.75;1.30;;;23.70;55.30;;;;;;5009629;28;20394;-58
2022/07/15 09:39:16;;;;;;;4.68;1.50;;;23.80;55.40;;;;;;5005602;28;20061;-58
2022/07/15 09:41:42;;;;;;;3.55;1.13;;;23.70;55.30;;;;;;5011397;28;20498;-58
2022/07/15 09:44:11;;;;;;;4.43;1.20;;;23.70;55.30;;;;;;5008100;28;20584;-58
2022/07/15 09:46:50;;;;;;;3.58;1.40;;;23.70;55.40;;;;;;5008542;28;20067;-58
2022/07/15 09:49:24;;;;;;;4.40;1.20;;;23.80;55.40;;;;;;5007984;28;20030;-58
2022/07/15 09:51:54;;;;;;;;;;;23.80;55.40;;;;;;5007625;28;20025;-58
2022/07/15 09:54:30;;;;;;;4.25;1.42;;;23.80;55.40;;;;;;5009809;28;19936;-57
2022/07/15 09:56:57;;;;;;;2.72;1.30;;;23.80;55.40;;;;;;5007674;28;20026;-58
2022/07/15 09:59:23;;;;;;;5.50;1.50;;;23.80;55.40;;;;;;5009868;28;20034;-58
2022/07/15 10:01:49;;;;;;;3.67;1.30;;;23.80;55.40;;;;;;5020644;28;20026;-58
2022/07/15 10:04:21;;;;;;;4.80;1.40;;;23.80;55.40;;;;;;5007251;28;20058;-58
2022/07/15 10:06:48;;;;;;;3.08;1.35;;;23.80;55.50;;;;;;5009178;28;20030;-58
2022/07/15 10:09:14;;;;;;;2.40;1.17;;;23.80;55.50;;;;;;5007848;28;20030;-58
2022/07/15 10:11:42;;;;;;;1.98;1.00;;;23.80;55.40;;;;;;5008794;28;20025;-58
2022/07/15 10:14:08;;;;;;;5.35;1.42;;;23.80;55.40;;;;;;5022728;28;20540;-58
2022/07/15 10:17:00;;;;;;;3.92;1.50;;;23.80;55.50;;;;;;5007481;28;20084;-58
2022/07/15 10:19:26;;;;;;;4.90;1.33;;;23.80;55.60;;;;;;5007488;28;20046;-58
2022/07/15 10:22:00;;;;;;;4.10;1.40;;;23.80;55.70;;;;;;5009033;28;20465;-58
2022/07/15 10:24:57;;;;;;;3.45;1.35;;;23.80;55.70;;;;;;5008373;28;20030;-58
2022/07/15 10:27:37;;;;;;;2.45;1.30;;;23.80;55.60;;;;;;5008285;28;20061;-58
2022/07/15 10:30:12;;;;;;;5.32;1.60;;;23.80;55.80;;;;;;5006043;28;20061;-58
2022/07/15 10:33:02;;;;;;;4.45;1.60;;;23.80;55.80;;;;;;5007043;28;20140;-57
2022/07/15 10:35:47;;;;;;;5.32;1.90;;;23.80;55.70;;;;;;5006413;28;20442;-58
2022/07/15 10:38:30;;;;;;;4.60;1.70;;;23.90;55.90;;;;;;5008873;28;20038;-58
2022/07/15 10:41:12;;;;;;;6.72;2.10;;;23.90;55.90;;;;;;5003590;28;20045;-58
2022/07/15 10:43:42;;;;;;;7.57;2.00;;;23.90;56.30;;;;;;5005044;28;20022;-58
2022/07/15 10:46:17;;;;;;;5.70;1.98;;;23.90;56.30;;;;;;5005409;28;20072;-58
2022/07/15 10:48:56;;;;;;;5.45;1.98;;;23.90;55.90;;;;;;5004035;28;20037;-58
2022/07/15 10:51:36;;;;;;;8.50;2.30;;;24.00;56.10;;;;;;5007911;28;20103;-58
2022/07/15 10:54:17;;;;;;;7.22;2.15;;;23.90;56.10;;;;;;5007085;28;20092;-58
2022/07/15 10:56:55;;;;;;;7.57;2.50;;;24.00;56.30;;;;;;5005833;28;20034;-58
2022/07/15 10:59:26;;;;;;;8.25;2.20;;;24.00;56.20;;;;;;5007804;28;20660;-58
2022/07/15 11:02:01;;;;;;;7.45;2.53;;;24.00;56.20;;;;;;5005651;28;20034;-58
2022/07/15 11:04:30;;;;;;;;;;;24.00;56.20;;;;;;5005902;28;20029;-58
2022/07/15 11:07:02;;;;;;;7.97;2.60;;;24.00;56.30;;;;;;5008418;28;19937;-58
2022/07/15 11:09:51;;;;;;;8.85;2.60;;;24.00;56.50;;;;;;5009097;28;20037;-58
2022/07/15 11:12:32;;;;;;;9.35;2.47;;;24.00;56.30;;;;;;5008174;28;20453;-58
2022/07/15 11:14:59;;;;;;;7.35;2.40;;;24.10;56.40;;;;;;5007718;28;20026;-57
2022/07/15 11:17:49;;;;;;;7.40;2.40;;;24.10;56.30;;;;;;5004240;28;20025;-58
2022/07/15 11:20:25;;;;;;;7.35;2.40;;;24.10;56.20;;;;;;5008312;28;20260;-58
2022/07/15 11:22:55;;;;;;;8.15;2.22;;;24.20;56.20;;;;;;5009443;28;20044;-58
2022/07/15 11:25:29;;;;;;;8.65;2.50;;;24.10;56.10;;;;;;5006864;28;20053;-58
2022/07/15 11:27:55;;;;;;;6.60;2.17;;;24.10;56.10;;;;;;5005261;28;20046;-58
2022/07/15 11:30:21;;;;;;;8.38;2.30;;;24.20;56.20;;;;;;5008600;28;20066;-58
2022/07/15 11:32:54;;;;;;;5.28;2.33;;;24.20;56.10;;;;;;5006858;28;20026;-58
2022/07/15 11:35:20;;;;;;;7.88;2.33;;;24.10;56.10;;;;;;5005408;28;20026;-58
2022/07/15 11:37:45;;;;;;;7.82;2.20;;;24.20;56.20;;;;;;5004163;28;20030;-58
2022/07/15 11:45:46;;;;;;;5.63;2.03;;;24.20;56.10;;;;;;5006678;28;20101;-58
2022/07/15 11:48:12;;;;;;;7.15;2.40;;;24.30;56.10;;;;;;5006910;28;20026;-58
2022/07/15 11:50:48;;;;;;;8.05;2.22;;;24.20;56.00;;;;;;5007354;28;20062;-58
2022/07/15 11:53:14;;;;;;;6.80;2.25;;;24.30;56.20;;;;;;5004831;28;20409;-58
2022/07/15 11:55:56;;;;;;;7.78;2.08;;;24.30;56.00;;;;;;5006438;28;20026;-58
2022/07/15 11:58:46;;;;;;;9.68;2.40;;;24.30;56.00;;;;;;5003205;28;20510;-58
2022/07/15 12:01:16;;;;;;;7.07;2.50;;;24.30;56.10;;;;;;5006746;28;20029;-58
2022/07/15 12:03:44;;;;;;;5.82;2.20;;;24.30;56.00;;;;;;5006266;28;20037;-58
2022/07/15 12:06:12;;;;;;;5.18;2.20;;;24.30;56.00;;;;;;5006299;28;20030;-58
2022/07/15 12:08:55;;;;;;;6.10;2.08;;;24.30;56.00;;;;;;5007251;28;20056;-58
2022/07/15 12:11:23;;;;;;;7.40;2.30;;;24.30;56.00;;;;;;5006017;28;20022;-58
2022/07/15 12:14:02;;;;;;;5.32;2.10;;;24.40;56.10;;;;;;5004452;28;20050;-58
2022/07/15 12:16:42;;;;;;;7.20;2.30;;;24.40;56.00;;;;;;5005611;28;20022;-58
2022/07/15 12:19:12;;;;;;;6.32;2.00;;;24.40;56.00;;;;;;5007210;28;20042;-58
2022/07/15 12:21:38;;;;;;;5.93;2.05;;;24.40;56.00;;;;;;5006827;28;20041;-58
2022/07/15 12:24:08;;;;;;;7.07;2.28;;;24.40;56.00;;;;;;5001610;28;20140;-58
2022/07/15 12:26:44;;;;;;;6.65;2.30;;;24.40;56.00;;;;;;5005798;28;20038;-58
2022/07/15 12:29:11;;;;;;;8.07;2.50;;;24.40;56.00;;;;;;5000501;28;20062;-58
2022/07/15 12:31:39;;;;;;;5.40;2.05;;;24.40;55.90;;;;;;5005807;28;20056;-58
2022/07/15 12:34:04;;;;;;;5.75;2.05;;;24.40;55.90;;;;;;5007226;28;20034;-58
2022/07/15 12:36:32;;;;;;;6.68;2.25;;;24.40;55.90;;;;;;5005344;28;20403;-58
2022/07/15 12:39:05;;;;;;;7.03;2.58;;;24.40;55.80;;;;;;5006988;28;20032;-58
2022/07/15 12:41:31;;;;;;;7.68;2.42;;;24.50;55.90;;;;;;5005713;28;20025;-58
2022/07/15 12:43:58;;;;;;;6.25;2.25;;;24.50;55.80;;;;;;5004765;28;20050;-58
2022/07/15 12:46:56;;;;;;;5.85;2.10;;;24.50;55.90;;;;;;5003963;28;20037;-58
2022/07/15 12:49:42;;;;;;;5.97;2.30;;;24.50;55.90;;;;;;5003196;28;20038;-58
2022/07/15 12:52:37;;;;;;;9.60;2.60;;;24.50;55.80;;;;;;5006054;28;20041;-58
2022/07/15 12:55:18;;;;;;;5.57;2.20;;;24.50;55.90;;;;;;5003430;28;20548;-58
2022/07/15 12:57:43;;;;;;;6.78;2.20;;;24.50;55.70;;;;;;5006692;28;20030;-58
2022/07/15 13:00:20;;;;;;;6.05;2.25;;;24.50;55.70;;;;;;5004138;28;20554;-58
2022/07/15 13:03:06;;;;;;;5.78;2.28;;;24.60;55.80;;;;;;5006553;28;20029;-58
2022/07/15 13:05:42;;;;;;;6.60;2.20;;;24.50;55.70;;;;;;5004424;28;20030;-58